createdAt,value
2017-09-05T00:00:45.666Z,15.97
2017-09-05T00:01:54.531Z,16
2017-09-05T00:03:03.401Z,16.01
2017-09-05T00:04:12.293Z,16
2017-09-05T00:05:21.128Z,16.07
2017-09-05T00:06:30.037Z,16.02
2017-09-05T00:07:38.869Z,16.07
2017-09-05T00:08:47.701Z,16
2017-09-05T00:09:56.529Z,16.01
2017-09-05T00:11:05.359Z,16.01
2017-09-05T00:12:14.342Z,15.89
2017-09-05T00:13:23.242Z,15.89
2017-09-05T00:14:32.357Z,16.01
2017-09-05T00:15:41.303Z,15.93
2017-09-05T00:16:50.160Z,15.96
2017-09-05T00:17:59.021Z,15.94
2017-09-05T00:19:08.141Z,15.96
2017-09-05T00:20:16.971Z,15.89
2017-09-05T00:21:25.802Z,15.92
2017-09-05T00:22:34.631Z,15.89
2017-09-05T00:23:43.461Z,15.89
2017-09-05T00:24:52.289Z,15.9
2017-09-05T00:26:01.117Z,15.92
2017-09-05T00:27:09.947Z,15.9
2017-09-05T00:28:19.543Z,15.87
2017-09-05T00:29:28.779Z,15.93
2017-09-05T00:30:37.664Z,15.93
2017-09-05T00:31:47.220Z,15.8
2017-09-05T00:32:56.921Z,15.83
2017-09-05T00:34:06.886Z,15.87
2017-09-05T00:35:15.767Z,15.84
2017-09-05T00:36:25.058Z,15.75
2017-09-05T00:37:34.078Z,15.82
2017-09-05T00:38:43.755Z,15.82
2017-09-05T00:39:53.341Z,15.82
2017-09-05T00:41:02.747Z,15.68
2017-09-05T00:42:11.574Z,15.74
2017-09-05T00:43:20.407Z,15.78
2017-09-05T00:44:29.830Z,15.69
2017-09-05T00:45:39.912Z,15.69
2017-09-05T00:46:49.336Z,15.72
2017-09-05T00:47:58.934Z,15.76
2017-09-05T00:49:08.738Z,15.69
2017-09-05T00:50:17.756Z,15.74
2017-09-05T00:51:27.642Z,15.74
2017-09-05T00:52:36.626Z,15.69
2017-09-05T00:53:45.597Z,15.82
2017-09-05T00:54:55.496Z,15.75
2017-09-05T00:56:04.435Z,15.8
2017-09-05T00:57:14.123Z,15.72
2017-09-05T00:58:23.071Z,15.75
2017-09-05T00:59:32.867Z,15.75
2017-09-05T01:00:42.085Z,15.78
2017-09-05T01:01:51.524Z,15.69
2017-09-05T01:03:00.684Z,15.74
2017-09-05T01:04:09.513Z,15.74
2017-09-05T01:05:18.342Z,15.75
2017-09-05T01:06:27.173Z,15.72
2017-09-05T01:07:35.998Z,15.78
2017-09-05T01:08:44.825Z,15.72
2017-09-05T01:09:53.650Z,15.72
2017-09-05T01:11:02.479Z,15.69
2017-09-05T01:12:11.305Z,15.72
2017-09-05T01:13:20.139Z,15.62
2017-09-05T01:14:28.965Z,15.67
2017-09-05T01:15:37.793Z,15.56
2017-09-05T01:16:46.622Z,15.62
2017-09-05T01:17:55.453Z,15.53
2017-09-05T01:19:04.286Z,15.53
2017-09-05T01:20:13.114Z,15.6
2017-09-05T01:21:21.937Z,15.51
2017-09-05T01:22:30.768Z,15.5
2017-09-05T01:23:39.597Z,15.54
2017-09-05T01:24:48.425Z,15.5
2017-09-05T01:25:57.257Z,15.49
2017-09-05T01:27:06.085Z,15.46
2017-09-05T01:28:14.911Z,15.47
2017-09-05T01:29:23.746Z,15.44
2017-09-05T01:30:32.577Z,15.38
2017-09-05T01:31:41.402Z,15.47
2017-09-05T01:32:50.228Z,15.47
2017-09-05T01:33:59.051Z,15.36
2017-09-05T01:35:07.882Z,15.46
2017-09-05T01:36:17.037Z,15.38
2017-09-05T01:37:25.868Z,15.38
2017-09-05T01:38:34.693Z,15.44
2017-09-05T01:39:43.521Z,15.41
2017-09-05T01:40:52.345Z,15.39
2017-09-05T01:42:01.176Z,15.34
2017-09-05T01:43:10.006Z,15.36
2017-09-05T01:44:18.831Z,15.34
2017-09-05T01:45:27.662Z,15.39
2017-09-05T01:46:36.490Z,15.31
2017-09-05T01:47:45.642Z,15.31
2017-09-05T01:48:54.475Z,15.25
2017-09-05T01:50:03.305Z,15.28
2017-09-05T01:51:12.129Z,15.25
2017-09-05T01:52:20.956Z,15.32
2017-09-05T01:53:29.809Z,15.2
2017-09-05T01:54:38.612Z,15.23
2017-09-05T01:55:47.445Z,15.21
2017-09-05T01:56:56.273Z,15.21
2017-09-05T01:58:05.099Z,15.29
2017-09-05T01:59:13.930Z,15.31
2017-09-05T02:00:23.082Z,15.19
2017-09-05T02:01:31.910Z,15.21
2017-09-05T02:02:40.738Z,15.17
2017-09-05T02:03:49.886Z,15.23
2017-09-05T02:04:58.716Z,15.2
2017-09-05T02:06:07.547Z,15.19
2017-09-05T02:07:16.383Z,15.19
2017-09-05T02:08:25.207Z,15.16
2017-09-05T02:09:34.039Z,15.13
2017-09-05T02:10:42.861Z,15.19
2017-09-05T02:11:52.017Z,15.17
2017-09-05T02:13:00.850Z,15.14
2017-09-05T02:14:09.680Z,15.11
2017-09-05T02:15:18.507Z,15.11
2017-09-05T02:16:27.335Z,15.1
2017-09-05T02:17:36.167Z,15.11
2017-09-05T02:18:44.989Z,15.1
2017-09-05T02:19:53.824Z,15.03
2017-09-05T02:21:02.655Z,15.02
2017-09-05T02:22:11.476Z,15.11
2017-09-05T02:23:20.332Z,15.07
2017-09-05T02:24:29.135Z,15.01
2017-09-05T02:25:37.963Z,15.06
2017-09-05T02:26:46.791Z,15.03
2017-09-05T02:27:55.618Z,14.96
2017-09-05T02:29:04.444Z,15.1
2017-09-05T02:30:13.274Z,15.07
2017-09-05T02:31:22.097Z,15.03
2017-09-05T02:32:30.919Z,15.07
2017-09-05T02:33:39.749Z,15.01
2017-09-05T02:34:48.578Z,15.01
2017-09-05T02:35:57.410Z,15.02
2017-09-05T02:37:06.238Z,14.98
2017-09-05T02:38:15.068Z,15.03
2017-09-05T02:39:23.891Z,14.99
2017-09-05T02:40:32.720Z,15.07
2017-09-05T02:41:41.548Z,15.02
2017-09-05T02:42:50.373Z,15.02
2017-09-05T02:43:59.206Z,15.02
2017-09-05T02:45:08.356Z,15.06
2017-09-05T02:46:17.184Z,14.99
2017-09-05T02:47:26.014Z,14.99
2017-09-05T02:48:34.842Z,14.99
2017-09-05T02:49:43.666Z,14.99
2017-09-05T02:50:52.498Z,14.98
2017-09-05T02:52:01.325Z,14.89
2017-09-05T02:53:10.154Z,14.91
2017-09-05T02:54:19.346Z,15.02
2017-09-05T02:55:28.174Z,15.02
2017-09-05T02:56:37.006Z,14.94
2017-09-05T02:57:45.833Z,14.98
2017-09-05T02:58:54.658Z,14.92
2017-09-05T03:00:03.818Z,15.06
2017-09-05T03:01:12.649Z,15.06
2017-09-05T03:02:21.477Z,15.03
2017-09-05T03:03:30.302Z,14.99
2017-09-05T03:04:39.133Z,14.98
2017-09-05T03:05:47.960Z,14.98
2017-09-05T03:06:56.790Z,15.01
2017-09-05T03:08:05.944Z,15.01
2017-09-05T03:09:14.785Z,15.01
2017-09-05T03:10:23.618Z,15.03
2017-09-05T03:11:32.445Z,14.96
2017-09-05T03:12:41.276Z,15.03
2017-09-05T03:13:50.102Z,14.94
2017-09-05T03:14:58.931Z,14.92
2017-09-05T03:16:07.756Z,14.96
2017-09-05T03:17:16.590Z,14.98
2017-09-05T03:18:25.418Z,14.96
2017-09-05T03:19:34.241Z,14.94
2017-09-05T03:20:43.069Z,14.99
2017-09-05T03:21:51.895Z,14.99
2017-09-05T03:23:00.722Z,14.95
2017-09-05T03:24:09.550Z,14.96
2017-09-05T03:25:18.379Z,14.88
2017-09-05T03:26:27.203Z,14.96
2017-09-05T03:27:36.027Z,14.92
2017-09-05T03:28:44.856Z,14.88
2017-09-05T03:29:53.678Z,14.92
2017-09-05T03:31:02.520Z,14.81
2017-09-05T03:32:11.344Z,14.84
2017-09-05T03:33:20.174Z,14.84
2017-09-05T03:34:29.001Z,14.86
2017-09-05T03:35:37.831Z,14.83
2017-09-05T03:36:46.657Z,14.78
2017-09-05T03:37:55.485Z,14.86
2017-09-05T03:39:04.314Z,14.69
2017-09-05T03:40:13.144Z,14.81
2017-09-05T03:41:21.967Z,14.68
2017-09-05T03:42:30.794Z,14.72
2017-09-05T03:43:39.953Z,14.77
2017-09-05T03:44:48.774Z,14.65
2017-09-05T03:45:57.605Z,14.78
2017-09-05T03:47:06.433Z,14.69
2017-09-05T03:48:15.268Z,14.72
2017-09-05T03:49:24.094Z,14.69
2017-09-05T03:50:32.920Z,14.69
2017-09-05T03:51:41.751Z,14.69
2017-09-05T03:52:50.579Z,14.7
2017-09-05T03:53:59.416Z,14.7
2017-09-05T03:55:08.242Z,14.65
2017-09-05T03:56:17.083Z,14.72
2017-09-05T03:57:25.894Z,14.65
2017-09-05T03:58:34.725Z,14.64
2017-09-05T03:59:43.554Z,14.61
2017-09-05T04:00:52.382Z,14.68
2017-09-05T04:02:01.209Z,14.64
2017-09-05T04:03:10.033Z,14.58
2017-09-05T04:04:18.864Z,14.55
2017-09-05T04:05:27.693Z,14.5
2017-09-05T04:06:36.521Z,14.52
2017-09-05T04:07:45.352Z,14.5
2017-09-05T04:08:54.170Z,14.47
2017-09-05T04:10:02.999Z,14.55
2017-09-05T04:11:11.827Z,14.52
2017-09-05T04:12:20.658Z,14.58
2017-09-05T04:13:29.481Z,14.52
2017-09-05T04:14:38.311Z,14.55
2017-09-05T04:15:47.143Z,14.61
2017-09-05T04:16:55.974Z,14.64
2017-09-05T04:18:04.798Z,14.61
2017-09-05T04:19:13.628Z,14.6
2017-09-05T04:20:22.456Z,14.6
2017-09-05T04:21:31.284Z,14.54
2017-09-05T04:22:40.115Z,14.51
2017-09-05T04:23:48.940Z,14.5
2017-09-05T04:24:57.762Z,14.5
2017-09-05T04:26:06.596Z,14.5
2017-09-05T04:27:15.421Z,14.52
2017-09-05T04:28:24.253Z,14.43
2017-09-05T04:29:33.077Z,14.54
2017-09-05T04:30:41.900Z,14.46
2017-09-05T04:31:50.722Z,14.54
2017-09-05T04:32:59.555Z,14.47
2017-09-05T04:34:08.388Z,14.52
2017-09-05T04:35:17.212Z,14.51
2017-09-05T04:36:26.039Z,14.5
2017-09-05T04:37:34.862Z,14.5
2017-09-05T04:38:43.693Z,14.5
2017-09-05T04:39:52.518Z,14.42
2017-09-05T04:41:01.350Z,14.42
2017-09-05T04:42:10.173Z,14.42
2017-09-05T04:43:19.003Z,14.4
2017-09-05T04:44:27.830Z,14.47
2017-09-05T04:45:36.654Z,14.47
2017-09-05T04:46:45.480Z,14.4
2017-09-05T04:47:54.311Z,14.42
2017-09-05T04:49:03.143Z,14.45
2017-09-05T04:50:11.971Z,14.43
2017-09-05T04:51:20.797Z,14.43
2017-09-05T04:52:29.620Z,14.46
2017-09-05T04:53:38.453Z,14.42
2017-09-05T04:54:47.285Z,14.37
2017-09-05T04:55:56.109Z,14.42
2017-09-05T04:57:04.942Z,14.42
2017-09-05T04:58:13.791Z,14.45
2017-09-05T04:59:22.597Z,14.42
2017-09-05T05:00:31.429Z,14.4
2017-09-05T05:01:40.259Z,14.47
2017-09-05T05:02:49.083Z,14.42
2017-09-05T05:03:57.906Z,14.52
2017-09-05T05:05:06.735Z,14.54
2017-09-05T05:06:15.716Z,14.39
2017-09-05T05:07:24.546Z,14.5
2017-09-05T05:08:33.372Z,14.5
2017-09-05T05:09:42.200Z,14.47
2017-09-05T05:10:51.025Z,14.39
2017-09-05T05:11:59.854Z,14.54
2017-09-05T05:13:08.682Z,14.51
2017-09-05T05:14:17.510Z,14.43
2017-09-05T05:15:26.338Z,14.47
2017-09-05T05:16:35.166Z,14.46
2017-09-05T05:17:44.145Z,14.46
2017-09-05T05:18:52.973Z,14.5
2017-09-05T05:20:01.801Z,14.43
2017-09-05T05:21:10.629Z,14.51
2017-09-05T05:22:19.461Z,14.45
2017-09-05T05:23:28.618Z,14.64
2017-09-05T05:24:37.447Z,14.55
2017-09-05T05:25:46.279Z,14.57
2017-09-05T05:26:55.107Z,14.57
2017-09-05T05:28:03.937Z,14.57
2017-09-05T05:29:12.766Z,14.57
2017-09-05T05:30:21.593Z,14.57
2017-09-05T05:31:30.415Z,14.65
2017-09-05T05:32:39.242Z,14.68
2017-09-05T05:33:48.073Z,14.65
2017-09-05T05:34:56.905Z,14.64
2017-09-05T05:36:05.734Z,14.61
2017-09-05T05:37:14.557Z,14.61
2017-09-05T05:38:23.385Z,14.65
2017-09-05T05:39:32.214Z,14.68
2017-09-05T05:40:41.039Z,14.58
2017-09-05T05:41:49.870Z,14.6
2017-09-05T05:42:58.692Z,14.62
2017-09-05T05:44:07.520Z,14.64
2017-09-05T05:45:16.349Z,14.69
2017-09-05T05:46:25.172Z,14.7
2017-09-05T05:47:33.998Z,14.73
2017-09-05T05:48:42.830Z,14.7
2017-09-05T05:49:51.653Z,14.7
2017-09-05T05:51:00.481Z,14.7
2017-09-05T05:52:09.310Z,14.69
2017-09-05T05:53:18.138Z,14.78
2017-09-05T05:54:26.964Z,14.86
2017-09-05T05:55:35.797Z,14.89
2017-09-05T05:56:44.622Z,14.91
2017-09-05T05:57:53.457Z,14.81
2017-09-05T05:59:02.283Z,14.91
2017-09-05T06:00:11.436Z,14.88
2017-09-05T06:01:20.263Z,14.92
2017-09-05T06:02:29.091Z,14.99
2017-09-05T06:03:38.237Z,15.02
2017-09-05T06:04:47.068Z,15.02
2017-09-05T06:05:55.901Z,14.99
2017-09-05T06:07:04.729Z,15.02
2017-09-05T06:08:13.553Z,15.02
2017-09-05T06:09:22.388Z,15.06
2017-09-05T06:10:31.212Z,14.95
2017-09-05T06:11:40.046Z,15.1
2017-09-05T06:12:48.870Z,15.14
2017-09-05T06:13:57.704Z,15.11
2017-09-05T06:15:06.531Z,15.07
2017-09-05T06:16:15.362Z,15.14
2017-09-05T06:17:24.192Z,15.19
2017-09-05T06:18:33.025Z,15.17
2017-09-05T06:19:41.849Z,15.27
2017-09-05T06:20:50.674Z,15.23
2017-09-05T06:21:59.500Z,15.23
2017-09-05T06:23:08.331Z,15.31
2017-09-05T06:24:17.159Z,15.32
2017-09-05T06:25:25.988Z,15.28
2017-09-05T06:26:34.817Z,15.39
2017-09-05T06:27:43.654Z,15.36
2017-09-05T06:28:52.521Z,15.49
2017-09-05T06:30:01.348Z,15.49
2017-09-05T06:31:10.178Z,15.47
2017-09-05T06:32:19.005Z,15.47
2017-09-05T06:33:27.835Z,15.46
2017-09-05T06:34:36.668Z,15.59
2017-09-05T06:35:45.499Z,15.57
2017-09-05T06:36:54.334Z,15.64
2017-09-05T06:38:03.156Z,15.65
2017-09-05T06:39:11.984Z,15.65
2017-09-05T06:40:20.814Z,15.68
2017-09-05T06:41:29.663Z,15.68
2017-09-05T06:42:38.474Z,15.83
2017-09-05T06:43:47.304Z,15.83
2017-09-05T06:44:56.134Z,15.86
2017-09-05T06:46:04.962Z,15.82
2017-09-05T06:47:13.794Z,15.84
2017-09-05T06:48:22.621Z,15.83
2017-09-05T06:49:31.542Z,15.93
2017-09-05T06:50:40.374Z,15.93
2017-09-05T06:51:49.287Z,15.94
2017-09-05T06:52:58.119Z,15.96
2017-09-05T06:54:06.986Z,16.05
2017-09-05T06:55:15.849Z,16.01
2017-09-05T06:56:24.713Z,16.04
2017-09-05T06:57:33.628Z,16.08
2017-09-05T06:58:43.117Z,16.15
2017-09-05T06:59:52.090Z,16.11
2017-09-05T07:01:01.302Z,16.08
2017-09-05T07:02:10.356Z,16.15
2017-09-05T07:03:19.212Z,16.15
2017-09-05T07:04:28.043Z,16.12
2017-09-05T07:05:36.872Z,16.17
2017-09-05T07:06:45.702Z,16.25
2017-09-05T07:07:54.526Z,16.27
2017-09-05T07:09:03.354Z,16.31
2017-09-05T07:10:12.177Z,16.41
2017-09-05T07:11:21.010Z,16.39
2017-09-05T07:12:29.844Z,16.35
2017-09-05T07:13:38.674Z,16.45
2017-09-05T07:14:47.502Z,16.45
2017-09-05T07:15:56.334Z,16.53
2017-09-05T07:17:05.163Z,16.56
2017-09-05T07:18:13.996Z,16.6
2017-09-05T07:19:22.827Z,16.57
2017-09-05T07:20:31.653Z,16.73
2017-09-05T07:21:40.480Z,16.73
2017-09-05T07:22:49.315Z,16.81
2017-09-05T07:23:58.142Z,16.78
2017-09-05T07:25:06.976Z,16.85
2017-09-05T07:26:15.806Z,16.81
2017-09-05T07:27:24.634Z,16.85
2017-09-05T07:28:33.458Z,16.94
2017-09-05T07:29:42.292Z,16.86
2017-09-05T07:30:51.122Z,16.88
2017-09-05T07:31:59.944Z,16.97
2017-09-05T07:33:08.779Z,16.98
2017-09-05T07:34:17.611Z,17
2017-09-05T07:35:26.438Z,17.11
2017-09-05T07:36:35.266Z,17.11
2017-09-05T07:37:44.091Z,17.14
2017-09-05T07:38:52.921Z,17.15
2017-09-05T07:40:01.746Z,17.19
2017-09-05T07:41:10.574Z,17.25
2017-09-05T07:42:19.405Z,17.19
2017-09-05T07:43:28.231Z,17.33
2017-09-05T07:44:37.063Z,17.23
2017-09-05T07:45:45.892Z,17.34
2017-09-05T07:46:54.722Z,17.41
2017-09-05T07:48:03.549Z,17.49
2017-09-05T07:49:12.380Z,17.41
2017-09-05T07:50:21.208Z,17.51
2017-09-05T07:51:30.039Z,17.52
2017-09-05T07:52:38.869Z,17.48
2017-09-05T07:53:48.016Z,17.54
2017-09-05T07:54:56.849Z,17.55
2017-09-05T07:56:05.684Z,17.63
2017-09-05T07:57:14.513Z,17.64
2017-09-05T07:58:23.338Z,17.74
2017-09-05T07:59:32.173Z,17.75
2017-09-05T08:00:41.000Z,17.71
2017-09-05T08:01:49.832Z,17.74
2017-09-05T08:02:58.669Z,17.72
2017-09-05T08:04:07.813Z,17.77
2017-09-05T08:05:16.639Z,17.78
2017-09-05T08:06:25.797Z,17.84
2017-09-05T08:07:34.628Z,17.89
2017-09-05T08:08:43.459Z,17.93
2017-09-05T08:09:52.286Z,17.9
2017-09-05T08:11:01.109Z,17.97
2017-09-05T08:12:09.942Z,18
2017-09-05T08:13:18.780Z,18.02
2017-09-05T08:14:27.615Z,18.03
2017-09-05T08:15:36.441Z,18.03
2017-09-05T08:16:45.275Z,18.1
2017-09-05T08:17:54.097Z,18.14
2017-09-05T08:19:02.926Z,18.12
2017-09-05T08:20:12.078Z,18.15
2017-09-05T08:21:20.909Z,18.21
2017-09-05T08:22:29.737Z,18.27
2017-09-05T08:23:38.571Z,18.25
2017-09-05T08:24:47.402Z,18.29
2017-09-05T08:25:56.232Z,18.33
2017-09-05T08:27:05.064Z,18.39
2017-09-05T08:28:13.891Z,18.44
2017-09-05T08:29:22.718Z,18.42
2017-09-05T08:30:31.556Z,18.37
2017-09-05T08:31:40.386Z,18.48
2017-09-05T08:32:49.220Z,18.5
2017-09-05T08:33:58.052Z,18.47
2017-09-05T08:35:06.886Z,18.44
2017-09-05T08:36:15.711Z,18.51
2017-09-05T08:37:24.545Z,18.6
2017-09-05T08:38:33.376Z,18.55
2017-09-05T08:39:42.206Z,18.6
2017-09-05T08:40:51.040Z,18.57
2017-09-05T08:41:59.874Z,18.66
2017-09-05T08:43:08.699Z,18.65
2017-09-05T08:44:17.529Z,18.69
2017-09-05T08:45:26.358Z,18.75
2017-09-05T08:46:35.189Z,18.75
2017-09-05T08:47:44.020Z,18.75
2017-09-05T08:48:52.848Z,18.73
2017-09-05T08:50:01.681Z,18.82
2017-09-05T08:51:10.513Z,18.81
2017-09-05T08:52:19.340Z,18.76
2017-09-05T08:53:28.169Z,18.84
2017-09-05T08:54:37.000Z,18.85
2017-09-05T08:55:45.832Z,18.91
2017-09-05T08:56:54.661Z,18.92
2017-09-05T08:58:03.491Z,18.92
2017-09-05T08:59:12.321Z,19
2017-09-05T09:00:21.154Z,19.02
2017-09-05T09:01:29.982Z,19
2017-09-05T09:02:38.826Z,19.06
2017-09-05T09:03:47.982Z,19.08
2017-09-05T09:04:56.815Z,19.14
2017-09-05T09:06:06.074Z,19.19
2017-09-05T09:07:15.089Z,19.16
2017-09-05T09:08:24.009Z,19.22
2017-09-05T09:09:32.844Z,19.13
2017-09-05T09:10:42.024Z,19.25
2017-09-05T09:11:51.191Z,19.26
2017-09-05T09:13:00.231Z,19.23
2017-09-05T09:14:09.062Z,19.31
2017-09-05T09:15:17.889Z,19.36
2017-09-05T09:16:26.778Z,19.4
2017-09-05T09:17:36.243Z,19.4
2017-09-05T09:18:45.072Z,19.39
2017-09-05T09:19:53.905Z,19.39
2017-09-05T09:21:03.413Z,19.43
2017-09-05T09:22:12.244Z,19.46
2017-09-05T09:23:21.074Z,19.54
2017-09-05T09:24:29.906Z,19.55
2017-09-05T09:25:38.733Z,19.5
2017-09-05T09:26:47.583Z,19.51
2017-09-05T09:27:56.430Z,19.51
2017-09-05T09:29:05.270Z,19.62
2017-09-05T09:30:14.119Z,19.66
2017-09-05T09:31:23.175Z,19.65
2017-09-05T09:32:32.012Z,19.61
2017-09-05T09:33:40.924Z,19.56
2017-09-05T09:34:49.753Z,19.68
2017-09-05T09:35:58.592Z,19.68
2017-09-05T09:37:07.422Z,19.74
2017-09-05T09:38:16.260Z,19.63
2017-09-05T09:39:25.090Z,19.68
2017-09-05T09:40:33.928Z,19.76
2017-09-05T09:41:42.769Z,19.73
2017-09-05T09:42:51.925Z,19.77
2017-09-05T09:44:00.756Z,19.77
2017-09-05T09:45:09.915Z,19.87
2017-09-05T09:46:18.750Z,19.87
2017-09-05T09:47:27.621Z,19.88
2017-09-05T09:48:36.460Z,19.96
2017-09-05T09:49:45.340Z,19.99
2017-09-05T09:50:54.171Z,20.03
2017-09-05T09:52:03.054Z,20.13
2017-09-05T09:53:11.929Z,19.96
2017-09-05T09:54:20.841Z,19.99
2017-09-05T09:55:30.014Z,20.11
2017-09-05T09:56:38.905Z,20.06
2017-09-05T09:57:48.134Z,20.14
2017-09-05T09:58:57.026Z,20.16
2017-09-05T10:00:05.909Z,20.16
2017-09-05T10:01:14.769Z,20.16
2017-09-05T10:02:23.601Z,20.18
2017-09-05T10:03:32.791Z,20.29
2017-09-05T10:04:41.622Z,20.26
2017-09-05T10:05:50.873Z,20.33
2017-09-05T10:06:59.915Z,20.35
2017-09-05T10:08:08.817Z,20.48
2017-09-05T10:09:17.667Z,20.38
2017-09-05T10:10:26.842Z,20.55
2017-09-05T10:11:35.778Z,20.51
2017-09-05T10:12:44.608Z,20.57
2017-09-05T10:13:53.517Z,20.62
2017-09-05T10:15:02.347Z,20.62
2017-09-05T10:16:11.382Z,20.54
2017-09-05T10:17:20.219Z,20.58
2017-09-05T10:18:29.056Z,20.66
2017-09-05T10:19:37.891Z,20.69
2017-09-05T10:20:47.058Z,20.73
2017-09-05T10:21:55.891Z,20.76
2017-09-05T10:23:04.719Z,20.73
2017-09-05T10:24:13.557Z,20.73
2017-09-05T10:25:22.389Z,20.79
2017-09-05T10:26:31.221Z,20.82
2017-09-05T10:27:40.068Z,20.72
2017-09-05T10:28:48.901Z,20.8
2017-09-05T10:29:57.730Z,20.82
2017-09-05T10:31:06.565Z,20.87
2017-09-05T10:32:15.401Z,20.91
2017-09-05T10:33:24.236Z,20.84
2017-09-05T10:34:33.170Z,20.94
2017-09-05T10:35:42.019Z,20.95
2017-09-05T10:36:50.846Z,20.91
2017-09-05T10:37:59.680Z,20.92
2017-09-05T10:39:08.514Z,20.92
2017-09-05T10:40:17.348Z,21.01
2017-09-05T10:41:26.181Z,20.99
2017-09-05T10:42:35.017Z,21.09
2017-09-05T10:43:43.868Z,21.04
2017-09-05T10:44:52.703Z,21.14
2017-09-05T10:46:01.865Z,21.17
2017-09-05T10:47:10.788Z,21.1
2017-09-05T10:48:19.627Z,21.19
2017-09-05T10:49:28.456Z,21.1
2017-09-05T10:50:37.290Z,21.21
2017-09-05T10:51:46.130Z,21.14
2017-09-05T10:52:55.294Z,21.13
2017-09-05T10:54:04.127Z,21.17
2017-09-05T10:55:12.960Z,21.22
2017-09-05T10:56:21.796Z,21.21
2017-09-05T10:57:30.627Z,21.19
2017-09-05T10:58:39.702Z,21.29
2017-09-05T10:59:48.579Z,21.25
2017-09-05T11:00:57.465Z,21.21
2017-09-05T11:02:06.297Z,21.29
2017-09-05T11:03:15.137Z,21.24
2017-09-05T11:04:23.997Z,21.31
2017-09-05T11:05:32.833Z,21.25
2017-09-05T11:06:41.701Z,21.29
2017-09-05T11:07:51.243Z,21.25
2017-09-05T11:09:00.078Z,21.38
2017-09-05T11:10:08.919Z,21.32
2017-09-05T11:11:17.753Z,21.42
2017-09-05T11:12:26.585Z,21.35
2017-09-05T11:13:35.416Z,21.37
2017-09-05T11:14:44.989Z,21.47
2017-09-05T11:15:54.138Z,21.43
2017-09-05T11:17:02.973Z,21.46
2017-09-05T11:18:12.128Z,21.47
2017-09-05T11:19:20.966Z,21.5
2017-09-05T11:20:29.799Z,21.56
2017-09-05T11:21:38.644Z,21.61
2017-09-05T11:22:47.508Z,21.54
2017-09-05T11:23:56.849Z,21.59
2017-09-05T11:25:05.893Z,21.49
2017-09-05T11:26:14.866Z,21.62
2017-09-05T11:27:24.555Z,21.58
2017-09-05T11:28:34.121Z,21.58
2017-09-05T11:29:43.063Z,21.56
2017-09-05T11:30:51.898Z,21.58
2017-09-05T11:32:00.909Z,21.64
2017-09-05T11:33:10.193Z,21.61
2017-09-05T11:34:19.682Z,21.69
2017-09-05T11:35:29.365Z,21.58
2017-09-05T11:36:38.824Z,21.71
2017-09-05T11:37:47.657Z,21.69
2017-09-05T11:38:56.486Z,21.75
2017-09-05T11:40:05.325Z,21.68
2017-09-05T11:41:14.159Z,21.77
2017-09-05T11:42:22.994Z,21.79
2017-09-05T11:43:32.176Z,21.82
2017-09-05T11:44:41.387Z,21.77
2017-09-05T11:45:50.218Z,21.82
2017-09-05T11:46:59.054Z,21.82
2017-09-05T11:48:08.033Z,21.84
2017-09-05T11:49:16.865Z,21.83
2017-09-05T11:50:25.783Z,21.88
2017-09-05T11:51:34.617Z,21.84
2017-09-05T11:52:43.445Z,21.86
2017-09-05T11:53:52.284Z,21.9
2017-09-05T11:55:01.123Z,21.9
2017-09-05T11:56:09.955Z,21.82
2017-09-05T11:57:18.786Z,21.91
2017-09-05T11:58:27.617Z,21.86
2017-09-05T11:59:36.453Z,21.88
2017-09-05T12:00:45.291Z,21.92
2017-09-05T12:01:54.125Z,22
2017-09-05T12:03:02.957Z,21.91
2017-09-05T12:04:11.796Z,21.99
2017-09-05T12:05:20.956Z,22.03
2017-09-05T12:06:29.790Z,22
2017-09-05T12:07:38.629Z,21.98
2017-09-05T12:08:47.785Z,21.99
2017-09-05T12:09:56.616Z,22.02
2017-09-05T12:11:05.452Z,22.02
2017-09-05T12:12:14.288Z,22.05
2017-09-05T12:13:23.118Z,22.03
2017-09-05T12:14:31.954Z,21.99
2017-09-05T12:15:41.109Z,22
2017-09-05T12:16:49.945Z,22.15
2017-09-05T12:17:58.777Z,22.05
2017-09-05T12:19:07.608Z,22.15
2017-09-05T12:20:16.444Z,22.15
2017-09-05T12:21:25.602Z,22.18
2017-09-05T12:22:34.756Z,22.17
2017-09-05T12:23:43.590Z,22.1
2017-09-05T12:24:52.424Z,22.17
2017-09-05T12:26:01.261Z,22.2
2017-09-05T12:27:10.092Z,22.14
2017-09-05T12:28:18.925Z,22.18
2017-09-05T12:29:27.761Z,22.12
2017-09-05T12:30:36.594Z,22.17
2017-09-05T12:31:45.427Z,22.18
2017-09-05T12:32:54.262Z,22.21
2017-09-05T12:34:03.090Z,22.14
2017-09-05T12:35:11.921Z,22.14
2017-09-05T12:36:20.756Z,22.14
2017-09-05T12:37:29.589Z,22.18
2017-09-05T12:38:38.427Z,22.17
2017-09-05T12:39:47.256Z,22.12
2017-09-05T12:40:56.091Z,22.17
2017-09-05T12:42:04.921Z,22.14
2017-09-05T12:43:13.758Z,22.21
2017-09-05T12:44:22.592Z,22.17
2017-09-05T12:45:31.421Z,22.22
2017-09-05T12:46:40.256Z,22.21
2017-09-05T12:47:49.086Z,22.22
2017-09-05T12:48:57.921Z,22.22
2017-09-05T12:50:06.759Z,22.22
2017-09-05T12:51:15.921Z,22.24
2017-09-05T12:52:24.750Z,22.2
2017-09-05T12:53:33.593Z,22.37
2017-09-05T12:54:42.417Z,22.31
2017-09-05T12:55:51.256Z,22.35
2017-09-05T12:57:00.091Z,22.39
2017-09-05T12:58:08.923Z,22.57
2017-09-05T12:59:17.757Z,22.77
2017-09-05T13:00:26.593Z,22.86
2017-09-05T13:01:35.429Z,22.83
2017-09-05T13:02:44.264Z,22.83
2017-09-05T13:03:53.097Z,22.67
2017-09-05T13:05:01.935Z,22.73
2017-09-05T13:06:10.764Z,22.72
2017-09-05T13:07:19.601Z,22.67
2017-09-05T13:08:28.439Z,22.62
2017-09-05T13:09:37.270Z,22.64
2017-09-05T13:10:46.107Z,22.61
2017-09-05T13:11:54.936Z,22.65
2017-09-05T13:13:03.770Z,22.57
2017-09-05T13:14:12.606Z,22.54
2017-09-05T13:15:21.443Z,22.54
2017-09-05T13:16:30.278Z,22.54
2017-09-05T13:17:39.109Z,22.52
2017-09-05T13:18:47.944Z,22.55
2017-09-05T13:19:56.780Z,22.52
2017-09-05T13:21:05.621Z,22.57
2017-09-05T13:22:14.457Z,22.57
2017-09-05T13:23:23.626Z,22.51
2017-09-05T13:24:32.462Z,22.52
2017-09-05T13:25:41.293Z,22.49
2017-09-05T13:26:50.134Z,22.6
2017-09-05T13:27:58.965Z,22.58
2017-09-05T13:29:07.800Z,22.55
2017-09-05T13:30:16.630Z,22.57
2017-09-05T13:31:25.464Z,22.57
2017-09-05T13:32:34.296Z,22.51
2017-09-05T13:33:43.128Z,22.52
2017-09-05T13:34:51.963Z,22.52
2017-09-05T13:36:00.802Z,22.55
2017-09-05T13:37:09.630Z,22.55
2017-09-05T13:38:18.462Z,22.49
2017-09-05T13:39:27.296Z,22.49
2017-09-05T13:40:36.130Z,22.55
2017-09-05T13:41:44.972Z,22.54
2017-09-05T13:42:53.804Z,22.52
2017-09-05T13:44:02.635Z,22.47
2017-09-05T13:45:11.471Z,22.51
2017-09-05T13:46:20.308Z,22.46
2017-09-05T13:47:29.141Z,22.43
2017-09-05T13:48:38.313Z,22.47
2017-09-05T13:49:47.147Z,22.51
2017-09-05T13:50:55.979Z,22.55
2017-09-05T13:52:04.813Z,22.52
2017-09-05T13:53:13.649Z,22.51
2017-09-05T13:54:22.484Z,22.49
2017-09-05T13:55:31.318Z,22.49
2017-09-05T13:56:40.155Z,22.51
2017-09-05T13:57:48.991Z,22.51
2017-09-05T13:58:57.819Z,22.49
2017-09-05T14:00:06.657Z,22.47
2017-09-05T14:01:15.486Z,22.55
2017-09-05T14:02:24.320Z,22.51
2017-09-05T14:03:33.155Z,22.52
2017-09-05T14:04:41.992Z,22.43
2017-09-05T14:05:50.822Z,22.46
2017-09-05T14:06:59.653Z,22.43
2017-09-05T14:08:08.486Z,22.45
2017-09-05T14:09:17.319Z,22.51
2017-09-05T14:10:26.158Z,22.45
2017-09-05T14:11:34.989Z,22.43
2017-09-05T14:12:43.819Z,22.46
2017-09-05T14:13:52.658Z,22.45
2017-09-05T14:15:01.511Z,22.51
2017-09-05T14:16:10.680Z,22.46
2017-09-05T14:17:19.515Z,22.47
2017-09-05T14:18:28.352Z,22.47
2017-09-05T14:19:37.178Z,22.47
2017-09-05T14:20:46.017Z,22.47
2017-09-05T14:21:54.853Z,22.43
2017-09-05T14:23:03.686Z,22.47
2017-09-05T14:24:12.519Z,22.51
2017-09-05T14:25:21.346Z,22.47
2017-09-05T14:26:30.183Z,22.45
2017-09-05T14:27:39.019Z,22.47
2017-09-05T14:28:47.862Z,22.49
2017-09-05T14:29:56.694Z,22.42
2017-09-05T14:31:05.535Z,22.49
2017-09-05T14:32:14.362Z,22.42
2017-09-05T14:33:23.194Z,22.33
2017-09-05T14:34:32.029Z,22.37
2017-09-05T14:35:40.865Z,22.37
2017-09-05T14:36:49.700Z,22.46
2017-09-05T14:37:58.530Z,22.46
2017-09-05T14:39:07.362Z,22.36
2017-09-05T14:40:16.190Z,22.31
2017-09-05T14:41:25.028Z,22.33
2017-09-05T14:42:33.862Z,22.39
2017-09-05T14:43:42.695Z,22.42
2017-09-05T14:44:51.527Z,22.37
2017-09-05T14:46:00.356Z,22.37
2017-09-05T14:47:09.188Z,22.4
2017-09-05T14:48:18.020Z,22.35
2017-09-05T14:49:26.859Z,22.42
2017-09-05T14:50:35.687Z,22.35